Time;durP1;ratioP1;P1;durP2;ratioP2;P2;SDS_P1;SDS_P2;PMS_P1;PMS_P2;Temp;Humidity;BMP_temperature;BMP_pressure;BME280_temperature;BME280_humidity;BME280_pressure;Samples;Min_cycle;Max_cycle;Signal;HPM_P1;HPM_P2
2023/10/23 00:04:41;;;;;;;2.10;0.70;;;;;;;18.87;60.70;96381.47;10332951;28;20034;-27
2023/10/23 00:09:41;;;;;;;0.97;0.60;;;;;;;18.89;60.59;96374.69;10342956;28;20040;-27
2023/10/23 00:14:41;;;;;;;1.37;0.63;;;;;;;18.84;60.61;96373.06;10326402;28;20034;-28
2023/10/23 00:19:42;;;;;;;1.80;0.60;;;;;;;18.86;60.55;96384.03;10329994;28;20038;-28
2023/10/23 00:24:42;;;;;;;2.63;0.70;;;;;;;18.82;60.66;96373.06;10326951;28;20088;-28
2023/10/23 00:29:42;;;;;;;2.87;1.13;;;;;;;18.85;60.40;96377.28;10325126;28;20057;-28
2023/10/23 00:34:43;;;;;;;1.52;0.77;;;;;;;18.84;60.31;96380.66;10327468;28;20034;-27
2023/10/23 00:39:44;;;;;;;3.15;1.40;;;;;;;18.85;60.06;96382.34;10325379;28;20031;-28
2023/10/23 00:44:44;;;;;;;1.00;0.53;;;;;;;18.86;59.81;96379.81;10333490;28;20046;-28
2023/10/23 00:49:45;;;;;;;1.40;0.50;;;;;;;18.86;59.95;96373.88;10340666;28;20125;-28
2023/10/23 00:54:46;;;;;;;1.63;0.43;;;;;;;18.83;60.12;96378.97;10332331;28;20049;-28
2023/10/23 00:59:47;;;;;;;2.78;0.80;;;;;;;18.83;59.81;96377.28;10323956;28;20038;-28
2023/10/23 01:04:50;;;;;;;1.10;0.63;;;;;;;18.86;59.64;96378.94;10333723;28;20034;-27
2023/10/23 01:09:50;;;;;;;0.98;0.50;;;;;;;18.81;59.58;96366.31;10341127;28;20571;-28
2023/10/23 01:14:51;;;;;;;0.80;0.47;;;;;;;18.85;59.49;96364.59;10330940;28;20125;-28
2023/10/23 01:19:51;;;;;;;1.80;0.50;;;;;;;18.86;59.14;96359.50;10333416;28;20821;-29
2023/10/23 01:24:52;;;;;;;2.05;0.70;;;;;;;18.88;59.11;96359.47;10344864;28;20034;-27
2023/10/23 01:29:52;;;;;;;1.67;0.50;;;;;;;18.87;59.15;96350.19;10350582;28;20037;-28
2023/10/23 01:34:53;;;;;;;1.30;0.77;;;;;;;18.84;59.09;96343.44;10348308;28;20512;-28
2023/10/23 01:39:53;;;;;;;1.70;0.60;;;;;;;18.83;59.20;96348.53;10352282;28;20034;-28
2023/10/23 01:44:55;;;;;;;1.67;0.50;;;;;;;18.83;59.41;96346.84;10352064;28;20033;-28
2023/10/23 01:49:56;;;;;;;0.90;0.40;;;;;;;18.82;59.01;96341.78;10352702;28;20667;-27
2023/10/23 01:54:58;;;;;;;1.98;0.57;;;;;;;18.84;58.79;96342.63;10349000;28;20041;-27
2023/10/23 02:00:04;;;;;;;1.67;0.60;;;;;;;18.84;59.06;96329.94;10355302;28;20029;-28
2023/10/23 02:05:12;;;;;;;1.67;0.60;;;;;;;18.81;59.00;96337.53;10354484;28;20034;-29
2023/10/23 02:10:13;;;;;;;1.48;0.60;;;;;;;18.82;58.93;96331.66;10356521;28;20037;-28
2023/10/23 02:15:13;;;;;;;1.60;0.50;;;;;;;18.83;58.75;96333.31;10351044;28;20095;-28
2023/10/23 02:20:13;;;;;;;2.15;0.40;;;;;;;18.86;58.58;96340.91;10351602;28;20321;-27
2023/10/23 02:25:14;;;;;;;0.60;0.47;;;;;;;18.90;57.89;96329.88;10350958;28;20042;-27
2023/10/23 02:30:14;;;;;;;1.90;0.73;;;;;;;18.93;57.91;96329.88;10358718;28;20710;-29
2023/10/23 02:35:15;;;;;;;1.47;0.60;;;;;;;18.92;57.45;96318.03;10348838;28;20050;-27
2023/10/23 02:40:16;;;;;;;1.75;0.30;;;;;;;18.89;58.00;96313.81;10358584;28;20091;-27
2023/10/23 02:45:17;;;;;;;1.08;0.55;;;;;;;18.89;58.27;96312.97;10352552;28;20033;-28
2023/10/23 02:50:17;;;;;;;1.15;0.85;;;;;;;18.89;58.03;96302.81;10359056;28;20033;-27
2023/10/23 02:55:18;;;;;;;1.02;0.50;;;;;;;18.89;58.04;96300.28;10358106;28;20033;-28
2023/10/23 03:00:22;;;;;;;2.27;0.47;;;;;;;18.87;57.95;96302.00;10354660;28;20074;-28
2023/10/23 03:05:22;;;;;;;1.13;0.30;;;;;;;18.91;57.01;96309.56;10351480;28;20041;-28
2023/10/23 03:10:23;;;;;;;1.47;0.40;;;;;;;18.93;57.02;96301.97;10354715;28;20480;-28
2023/10/23 03:15:23;;;;;;;2.85;0.68;;;;;;;18.89;57.32;96301.13;10348933;28;20033;-28
2023/10/23 03:20:24;;;;;;;1.67;0.70;;;;;;;18.91;56.99;96303.66;10352708;28;20390;-28
2023/10/23 03:25:24;;;;;;;0.60;0.40;;;;;;;18.91;57.01;96298.59;10354812;28;20108;-28
2023/10/23 03:30:25;;;;;;;1.40;0.57;;;;;;;18.88;57.43;96296.94;10351235;28;20412;-28
2023/10/23 03:35:26;;;;;;;0.70;0.50;;;;;;;18.89;57.51;96293.53;10336654;28;20386;-28
2023/10/23 03:40:27;;;;;;;1.75;0.50;;;;;;;18.88;57.28;96285.91;10349038;28;20875;-28
2023/10/23 03:45:28;;;;;;;1.08;0.32;;;;;;;18.94;56.30;96284.19;10344792;28;20041;-27
2023/10/23 03:50:28;;;;;;;1.80;0.60;;;;;;;18.94;56.34;96281.66;10348108;28;20042;-28
2023/10/23 03:55:28;;;;;;;1.37;0.23;;;;;;;18.94;56.31;96271.50;10334323;28;20030;-27
2023/10/23 04:00:29;;;;;;;0.90;0.40;;;;;;;18.98;55.35;96272.31;10331619;28;20038;-28
2023/10/23 04:05:30;;;;;;;1.30;0.38;;;;;;;19.02;55.28;96276.50;10340928;28;20108;-28
2023/10/23 04:10:31;;;;;;;0.80;0.60;;;;;;;19.04;54.97;96277.31;10335646;28;20045;-28
2023/10/23 04:15:31;;;;;;;4.28;1.42;;;;;;;19.08;55.57;96276.47;10353434;28;20050;-28
2023/10/23 04:20:32;;;;;;;1.50;0.98;;;;;;;19.11;55.75;96274.75;10335952;28;20431;-28
2023/10/23 04:25:32;;;;;;;1.97;0.40;;;;;;;19.10;56.07;96256.97;10341108;28;20459;-29
2023/10/23 04:30:33;;;;;;;3.20;0.70;;;;;;;19.11;56.24;96259.50;10341656;28;20389;-28
2023/10/23 04:35:33;;;;;;;2.80;0.80;;;;;;;19.12;56.13;96255.25;10333748;28;20404;-28
2023/10/23 04:40:34;;;;;;;2.47;0.87;;;;;;;19.06;56.22;96237.56;10354709;28;20045;-28
2023/10/23 04:45:35;;;;;;;2.10;0.60;;;;;;;19.02;55.98;96235.91;10344309;28;20077;-28
2023/10/23 04:50:39;;;;;;;6.40;0.98;;;;;;;18.99;55.50;96233.41;10347040;28;20054;-28
2023/10/23 04:55:40;;;;;;;4.07;1.00;;;;;;;19.01;55.61;96234.25;10350702;28;20054;-28
2023/10/23 05:00:40;;;;;;;8.55;1.10;;;;;;;19.05;55.82;96248.56;10361497;28;20497;-29
2023/10/23 05:05:51;;;;;;;10.27;2.37;;;;;;;19.07;56.03;96245.16;10351622;28;20034;-28
2023/10/23 05:10:51;;;;;;;3.55;1.23;;;;;;;19.09;56.29;96242.63;10353389;28;20034;-28
2023/10/23 05:15:51;;;;;;;12.43;1.80;;;;;;;19.09;56.38;96237.53;10355156;28;20045;-29
2023/10/23 05:20:52;;;;;;;7.27;1.53;;;;;;;19.10;56.94;96236.69;10347708;28;20034;-27
2023/10/23 05:25:52;;;;;;;9.03;1.40;;;;;;;19.09;56.67;96225.69;10348516;28;20045;-28
2023/10/23 05:30:52;;;;;;;6.97;1.40;;;;;;;18.94;55.81;96220.78;10344675;28;20038;-29
2023/10/23 05:36:09;;;;;;;7.47;1.40;;;;;;;18.89;54.91;96206.44;10341373;28;20037;-27
2023/10/23 05:41:09;;;;;;;6.20;0.90;;;;;;;18.95;54.67;96188.63;10341077;28;20088;-28
2023/10/23 05:46:10;;;;;;;3.88;1.30;;;;;;;18.99;54.87;96185.22;10341219;28;20076;-28
2023/10/23 05:51:10;;;;;;;9.43;1.37;;;;;;;19.00;55.13;96185.19;10347132;28;20392;-27
2023/10/23 05:56:11;;;;;;;3.60;0.97;;;;;;;19.02;55.20;96183.47;10350161;28;20366;-28
2023/10/23 06:01:11;;;;;;;4.00;0.97;;;;;;;19.01;55.53;96178.44;10338170;28;20030;-28
2023/10/23 06:06:14;;;;;;;2.40;0.80;;;;;;;19.01;55.73;96176.72;10338109;28;20033;-27
2023/10/23 06:11:15;;;;;;;8.07;1.13;;;;;;;19.00;56.49;96190.25;10345265;28;20034;-27
2023/10/23 06:16:15;;;;;;;2.83;1.00;;;;;;;19.01;55.86;96202.09;10335324;28;20046;-27
2023/10/23 06:21:15;;;;;;;4.13;1.07;;;;;;;19.02;55.79;96192.78;10332441;28;20041;-28
2023/10/23 06:26:16;;;;;;;5.13;1.00;;;;;;;19.02;55.57;96202.94;10337143;28;20085;-29
2023/10/23 06:31:16;;;;;;;3.13;1.40;;;;;;;19.01;56.21;96186.03;10332032;28;20905;-27
2023/10/23 06:36:16;;;;;;;3.10;0.82;;;;;;;19.02;55.96;96192.78;10338874;28;20054;-28
2023/10/23 06:41:17;;;;;;;4.03;0.80;;;;;;;19.00;56.07;96194.50;10331747;28;20034;-28
2023/10/23 06:46:17;;;;;;;1.70;0.73;;;;;;;19.03;56.26;96199.53;10341230;28;21778;-27
2023/10/23 06:51:17;;;;;;;1.37;0.60;;;;;;;18.91;55.88;96179.38;10330479;28;20432;-28
2023/10/23 06:56:18;;;;;;;1.07;0.77;;;;;;;19.01;56.09;96189.41;10329490;28;20545;-28
2023/10/23 07:01:20;;;;;;;1.80;0.70;;;;;;;19.01;56.48;96178.44;10333629;28;20562;-28
2023/10/23 07:06:21;;;;;;;4.13;0.90;;;;;;;19.01;56.24;96181.78;10338204;28;20489;-28
2023/10/23 07:11:22;;;;;;;4.17;0.83;;;;;;;19.02;56.33;96182.63;10336443;28;20046;-28
2023/10/23 07:16:23;;;;;;;1.58;0.63;;;;;;;19.01;56.35;96186.03;10339305;28;20068;-28
2023/10/23 07:21:25;;;;;;;1.40;0.80;;;;;;;19.01;56.33;96180.97;10335276;28;20045;-27
2023/10/23 07:26:26;;;;;;;3.42;0.68;;;;;;;19.00;56.27;96171.69;10330542;28;20069;-28
2023/10/23 07:31:26;;;;;;;3.17;1.13;;;;;;;19.01;56.47;96158.13;10335945;28;20030;-28
2023/10/23 07:36:26;;;;;;;1.47;0.80;;;;;;;19.00;56.65;96159.00;10328254;28;20038;-29
2023/10/23 07:41:27;;;;;;;1.57;0.80;;;;;;;19.00;56.62;96157.28;10329795;28;20064;-28
2023/10/23 07:46:27;;;;;;;3.00;0.80;;;;;;;19.00;56.61;96149.66;10339500;28;20769;-27
2023/10/23 07:51:27;;;;;;;1.50;0.80;;;;;;;18.98;56.92;96140.38;10351374;28;20285;-29
2023/10/23 07:56:28;;;;;;;1.63;0.77;;;;;;;18.99;56.80;96152.25;10327068;28;20060;-28
2023/10/23 08:01:28;;;;;;;1.52;0.70;;;;;;;18.98;56.58;96150.53;10330879;28;20686;-28
2023/10/23 08:06:29;;;;;;;1.20;0.60;;;;;;;18.92;56.85;96146.38;10326854;28;20030;-27
2023/10/23 08:11:29;;;;;;;1.45;0.68;;;;;;;18.99;56.93;96180.16;10330034;28;20037;-28
2023/10/23 08:16:30;;;;;;;2.23;0.80;;;;;;;18.99;56.84;96197.91;10336413;28;20041;-28
2023/10/23 08:21:32;;;;;;;0.25;0.25;;;;;;;18.99;56.84;96203.81;10331413;28;20038;-28
2023/10/23 08:26:32;;;;;;;1.90;0.55;;;;;;;18.97;56.88;96220.75;10330089;28;20492;-28
2023/10/23 08:31:33;;;;;;;0.57;0.43;;;;;;;18.98;56.92;96231.72;10339586;28;20038;-27
2023/10/23 08:36:33;;;;;;;1.93;0.67;;;;;;;18.97;57.18;96246.09;10334675;28;20042;-27
2023/10/23 08:41:36;;;;;;;1.50;0.47;;;;;;;18.98;57.00;96239.31;10329574;28;20031;-27
2023/10/23 08:46:39;;;;;;;1.17;0.40;;;;;;;18.96;57.18;96239.34;10340615;28;20046;-28
2023/10/23 08:51:41;;;;;;;2.60;0.80;;;;;;;18.96;57.12;96234.28;10335440;28;20034;-27
2023/10/23 08:56:43;;;;;;;1.13;0.63;;;;;;;18.95;57.01;96211.47;10330446;28;20046;-29
2023/10/23 09:01:44;;;;;;;0.80;0.43;;;;;;;18.94;57.06;96210.63;10329079;28;20396;-27
2023/10/23 09:06:45;;;;;;;0.75;0.40;;;;;;;18.94;57.13;96189.50;10325853;28;20042;-29
2023/10/23 09:11:49;;;;;;;1.50;0.50;;;;;;;18.93;57.00;96178.50;10328207;28;20042;-28
2023/10/23 09:16:51;;;;;;;1.92;0.63;;;;;;;18.95;57.11;96206.38;10330118;28;20033;-28
2023/10/23 09:21:54;;;;;;;1.13;0.75;;;;;;;18.95;57.08;96191.16;10336398;28;20034;-28
2023/10/23 09:26:54;;;;;;;1.75;0.63;;;;;;;18.95;57.47;96188.63;10346983;28;20415;-28
2023/10/23 09:31:57;;;;;;;0.93;0.70;;;;;;;18.94;57.06;96192.03;10341870;28;20035;-30
2023/10/23 09:36:57;;;;;;;0.82;0.40;;;;;;;18.94;57.31;96205.56;10334040;28;20301;-28
2023/10/23 09:41:59;;;;;;;1.40;0.60;;;;;;;18.94;57.16;96209.78;10335311;28;20038;-28
2023/10/23 09:47:01;;;;;;;3.03;0.82;;;;;;;18.93;57.16;96186.09;10334082;28;20023;-28
2023/10/23 09:52:07;;;;;;;1.63;0.80;;;;;;;18.91;57.39;96165.00;10333499;28;20420;-28
2023/10/23 09:57:10;;;;;;;0.50;0.40;;;;;;;18.92;57.33;96171.72;10346687;28;20513;-28
2023/10/23 10:02:13;;;;;;;0.68;0.40;;;;;;;18.90;57.43;96168.38;10337091;28;20463;-28
2023/10/23 10:07:31;;;;;;;1.60;0.65;;;;;;;18.94;57.27;96164.13;10331573;28;20030;-27
2023/10/23 10:12:37;;;;;;;0.65;0.47;;;;;;;18.97;57.10;96146.31;10349134;28;20042;-28
2023/10/23 10:17:41;;;;;;;1.45;0.50;;;;;;;18.98;57.26;96133.63;10343995;28;20042;-28
2023/10/23 10:22:43;;;;;;;1.45;0.73;;;;;;;18.99;56.45;96112.47;10333389;28;20038;-27
2023/10/23 10:27:54;;;;;;;0.82;0.45;;;;;;;19.02;56.74;96109.06;10330777;28;20037;-27
2023/10/23 10:33:01;;;;;;;1.48;0.73;;;;;;;18.99;57.25;96109.13;10340202;28;20489;-27
2023/10/23 10:38:03;;;;;;;;;;;;;;;19.04;57.21;96094.66;10333306;28;20058;-29
2023/10/23 10:43:05;;;;;;;1.90;0.65;;;;;;;19.04;56.66;96094.66;10343803;28;20304;-27
2023/10/23 10:48:09;;;;;;;6.95;2.40;;;;;;;19.02;56.77;96101.47;10335086;28;20036;-28
2023/10/23 10:53:14;;;;;;;3.70;0.90;;;;;;;19.03;57.50;96093.00;10330266;28;20045;-27
2023/10/23 10:58:19;;;;;;;3.92;1.15;;;;;;;19.05;57.77;96101.41;10341789;28;20057;-28
2023/10/23 11:03:19;;;;;;;4.18;0.98;;;;;;;19.06;57.89;96103.09;10337579;28;20026;-28
2023/10/23 11:08:20;;;;;;;5.93;1.40;;;;;;;19.06;57.88;96103.09;10332235;28;20093;-27
2023/10/23 11:13:20;;;;;;;4.28;1.05;;;;;;;19.07;57.64;96104.75;10341245;28;20289;-28
2023/10/23 11:18:22;;;;;;;3.88;1.08;;;;;;;19.10;57.95;96095.41;10333304;28;20057;-29
2023/10/23 11:23:23;;;;;;;4.38;1.17;;;;;;;19.11;57.71;96022.69;10339440;28;20030;-28
2023/10/23 11:28:24;;;;;;;8.90;1.45;;;;;;;19.09;57.65;95988.91;10331227;28;20045;-27
2023/10/23 11:33:24;;;;;;;8.15;1.38;;;;;;;19.09;57.84;95981.28;10332960;28;20034;-27
2023/10/23 11:38:26;;;;;;;6.77;1.93;;;;;;;19.08;58.04;95975.34;10328029;28;20303;-29
2023/10/23 11:43:27;;;;;;;7.30;2.22;;;;;;;19.07;57.86;95991.44;10334515;28;20735;-28
2023/10/23 11:48:28;;;;;;;5.75;1.33;;;;;;;19.05;58.14;95972.03;10333998;28;20472;-27
2023/10/23 11:53:32;;;;;;;7.78;1.63;;;;;;;19.05;58.19;95944.13;10336502;28;20066;-28
2023/10/23 11:58:33;;;;;;;11.15;3.83;;;;;;;19.08;58.15;95931.41;10335791;28;20038;-28
2023/10/23 12:03:33;;;;;;;11.98;3.08;;;;;;;19.09;58.04;95918.69;10338089;28;20474;-28
2023/10/23 12:08:34;;;;;;;10.00;2.00;;;;;;;19.04;58.16;95904.41;10328543;28;20026;-28
2023/10/23 12:13:35;;;;;;;8.18;2.20;;;;;;;19.05;58.18;95890.84;10343473;28;20790;-27
2023/10/23 12:18:36;;;;;;;13.60;2.35;;;;;;;19.04;58.46;95882.41;10330987;28;20030;-27
2023/10/23 12:23:36;;;;;;;3.47;1.45;;;;;;;19.03;58.45;95893.44;10330213;28;20045;-28
2023/10/23 12:28:37;;;;;;;6.53;1.73;;;;;;;19.07;58.08;95872.22;10338693;28;20084;-27
2023/10/23 12:33:38;;;;;;;5.05;2.03;;;;;;;19.02;58.24;95863.81;10331277;28;20298;-28
2023/10/23 12:38:38;;;;;;;10.98;2.88;;;;;;;18.98;58.78;95836.84;10331313;28;20508;-28
2023/10/23 12:43:38;;;;;;;21.00;4.05;;;;;;;19.05;58.45;95813.06;10343939;28;20038;-28
2023/10/23 12:48:43;;;;;;;19.45;5.93;;;;;;;19.07;59.14;95797.78;10332843;28;20034;-28
2023/10/23 12:53:43;;;;;;;13.07;4.57;;;;;;;19.06;58.86;95778.34;10338974;28;20100;-29
2023/10/23 12:58:44;;;;;;;17.23;6.00;;;;;;;19.05;58.98;95766.53;10330205;28;20034;-27
2023/10/23 13:03:44;;;;;;;28.35;6.47;;;;;;;19.04;58.92;95759.81;10339283;28;20380;-28
2023/10/23 13:08:45;;;;;;;19.17;7.50;;;;;;;19.08;58.43;95761.44;10344300;28;20081;-28
2023/10/23 13:13:45;;;;;;;19.55;8.07;;;;;;;19.05;58.77;95752.19;10342301;28;20407;-28
2023/10/23 13:18:46;;;;;;;14.67;7.17;;;;;;;19.09;58.58;95758.03;10338800;28;20052;-28
2023/10/23 13:23:46;;;;;;;18.60;8.77;;;;;;;19.07;58.78;95747.06;10355761;28;20281;-27
2023/10/23 13:28:47;;;;;;;24.15;10.23;;;;;;;19.07;58.82;95736.91;10339068;28;20268;-28
2023/10/23 13:33:47;;;;;;;18.90;9.83;;;;;;;19.06;58.81;95722.56;10341081;28;20030;-28
2023/10/23 13:38:48;;;;;;;17.43;9.27;;;;;;;19.07;58.60;95706.47;10353043;28;20038;-28
2023/10/23 13:43:48;;;;;;;18.95;9.93;;;;;;;19.04;58.47;95709.91;10347617;28;20400;-28
2023/10/23 13:48:49;;;;;;;18.40;10.60;;;;;;;19.04;58.83;95699.78;10343998;28;20026;-28
2023/10/23 13:53:50;;;;;;;14.50;8.93;;;;;;;19.04;58.62;95698.91;10345593;28;20027;-28
2023/10/23 13:58:51;;;;;;;16.50;8.80;;;;;;;19.06;58.66;95692.13;10336771;28;20125;-27
2023/10/23 14:03:53;;;;;;;18.77;8.95;;;;;;;19.04;58.18;95681.16;10336273;28;20121;-28
2023/10/23 14:08:54;;;;;;;18.95;9.15;;;;;;;19.03;58.35;95671.88;10337101;28;20039;-28
2023/10/23 14:13:54;;;;;;;16.02;8.32;;;;;;;19.03;58.67;95665.13;10342645;28;20026;-27
2023/10/23 14:18:55;;;;;;;17.58;8.30;;;;;;;19.03;58.55;95649.06;10336558;28;20038;-28
2023/10/23 14:23:55;;;;;;;14.98;8.93;;;;;;;19.02;58.43;95635.53;10342373;28;20030;-28
2023/10/23 14:28:56;;;;;;;13.70;8.17;;;;;;;19.02;58.68;95619.50;10338824;28;20142;-28
2023/10/23 14:33:56;;;;;;;18.10;9.48;;;;;;;19.02;58.70;95620.31;10344532;28;20285;-28
2023/10/23 14:38:56;;;;;;;17.07;8.90;;;;;;;18.99;58.59;95629.72;10340739;28;20046;-27
2023/10/23 14:43:58;;;;;;;16.00;9.47;;;;;;;19.01;58.75;95622.91;10339423;28;20660;-28
2023/10/23 14:48:59;;;;;;;18.60;9.25;;;;;;;18.92;58.80;95610.38;10349194;28;20125;-27
2023/10/23 14:54:00;;;;;;;15.98;7.45;;;;;;;19.02;58.54;95617.78;10343878;28;20042;-27
2023/10/23 14:59:01;;;;;;;19.37;9.70;;;;;;;19.04;58.46;95612.69;10343876;28;20030;-27
2023/10/23 15:04:02;;;;;;;19.65;9.05;;;;;;;19.01;58.90;95613.56;10356201;28;20371;-28
2023/10/23 15:09:03;;;;;;;20.48;10.50;;;;;;;19.00;58.88;95599.22;10333817;28;20488;-27
2023/10/23 15:14:06;;;;;;;16.92;9.15;;;;;;;18.99;59.00;95589.13;10331871;28;20031;-29
2023/10/23 15:19:07;;;;;;;14.55;9.15;;;;;;;19.00;58.97;95588.25;10341009;28;20045;-27
2023/10/23 15:24:10;;;;;;;17.90;7.60;;;;;;;19.02;57.90;95586.50;10343206;28;20034;-29
2023/10/23 15:29:10;;;;;;;16.35;8.60;;;;;;;19.00;58.69;95570.50;10334618;28;20030;-28
2023/10/23 15:34:11;;;;;;;15.60;7.97;;;;;;;19.00;57.96;95571.31;10341572;28;20038;-28
2023/10/23 15:39:11;;;;;;;15.37;7.77;;;;;;;19.06;58.18;95575.44;10343329;28;20035;-28
2023/10/23 15:44:12;;;;;;;12.53;7.50;;;;;;;19.06;58.44;95575.44;10343812;28;20044;-28
2023/10/23 15:49:13;;;;;;;14.52;7.22;;;;;;;19.02;58.13;95573.84;10330593;28;20026;-28
2023/10/23 15:54:13;;;;;;;21.93;7.20;;;;;;;19.08;58.30;95583.88;10348671;28;20031;-29
2023/10/23 15:59:13;;;;;;;13.33;7.53;;;;;;;19.08;58.53;95594.81;10351842;28;20168;-29
2023/10/23 16:04:14;;;;;;;13.00;7.13;;;;;;;19.09;58.22;95590.59;10345978;28;20091;-27
2023/10/23 16:09:16;;;;;;;11.63;6.17;;;;;;;18.95;57.89;95588.34;10348382;28;20281;-28
2023/10/23 16:14:17;;;;;;;14.43;4.93;;;;;;;18.91;57.40;95579.09;10352784;28;20105;-28
2023/10/23 16:19:17;;;;;;;17.37;5.83;;;;;;;18.82;57.66;95570.88;10345973;28;20046;-28
2023/10/23 16:24:17;;;;;;;10.47;4.63;;;;;;;18.87;57.76;95574.97;10342595;28;20037;-28
2023/10/23 16:29:18;;;;;;;11.30;5.67;;;;;;;18.91;57.89;95585.91;10342759;28;20057;-28
2023/10/23 16:34:18;;;;;;;14.87;5.87;;;;;;;18.95;58.24;95583.28;10345876;28;20675;-27
2023/10/23 16:39:19;;;;;;;14.90;5.97;;;;;;;18.94;58.59;95576.53;10351397;28;20038;-27
2023/10/23 16:44:19;;;;;;;11.37;5.83;;;;;;;18.94;58.92;95565.53;10340856;28;20034;-28
2023/10/23 16:49:19;;;;;;;11.43;6.10;;;;;;;18.94;58.74;95575.69;10355558;28;20295;-27
2023/10/23 16:54:20;;;;;;;12.27;5.60;;;;;;;18.96;59.10;95591.69;10339463;28;20412;-28
2023/10/23 16:59:20;;;;;;;12.03;5.70;;;;;;;18.98;58.82;95597.56;10342610;28;20512;-29
2023/10/23 17:04:22;;;;;;;10.67;5.53;;;;;;;19.01;58.69;95617.81;10352923;28;20029;-28
2023/10/23 17:09:22;;;;;;;9.95;4.70;;;;;;;19.05;58.66;95634.63;10339025;28;20125;-29
2023/10/23 17:14:23;;;;;;;10.47;5.13;;;;;;;19.07;58.63;95632.91;10337345;28;20054;-27
2023/10/23 17:19:23;;;;;;;20.40;5.65;;;;;;;18.99;59.62;95647.47;10339373;28;20030;-27
2023/10/23 17:24:24;;;;;;;29.00;5.63;;;;;;;19.12;58.62;95667.50;10353737;28;20559;-28
2023/10/23 17:29:25;;;;;;;10.77;5.20;;;;;;;19.15;58.64;95661.50;10339787;28;20484;-28
2023/10/23 17:34:28;;;;;;;20.92;5.28;;;;;;;19.13;58.69;95673.38;10335734;28;20030;-27
2023/10/23 17:39:32;;;;;;;10.00;4.65;;;;;;;19.15;58.30;95686.88;10340213;28;20045;-28
2023/10/23 17:44:32;;;;;;;15.98;5.00;;;;;;;19.17;58.84;95705.47;10340397;28;20033;-27
2023/10/23 17:49:32;;;;;;;7.65;4.57;;;;;;;19.18;59.10;95717.28;10356077;28;20034;-27
2023/10/23 17:54:33;;;;;;;11.33;4.67;;;;;;;19.14;58.65;95728.31;10345933;28;20484;-28
2023/10/23 17:59:34;;;;;;;12.07;5.10;;;;;;;19.16;58.67;95769.75;10359571;28;20797;-28
2023/10/23 18:04:34;;;;;;;12.80;4.37;;;;;;;19.17;58.76;95796.78;10335313;28;20471;-28
2023/10/23 18:09:34;;;;;;;10.90;4.93;;;;;;;19.09;58.63;95816.38;10320498;28;20435;-28
2023/10/23 18:14:35;;;;;;;12.37;4.77;;;;;;;19.16;58.73;95846.69;10357460;28;20488;-27
2023/10/23 18:19:35;;;;;;;13.23;5.13;;;;;;;19.19;58.60;95845.84;10348966;28;20042;-29
2023/10/23 18:24:36;;;;;;;16.23;4.40;;;;;;;19.18;58.88;95860.19;10353909;28;20354;-28
2023/10/23 18:29:36;;;;;;;10.33;4.90;;;;;;;19.19;58.62;95876.28;10348380;28;20046;-28
2023/10/23 18:34:38;;;;;;;11.63;4.60;;;;;;;19.24;58.96;95895.66;10360445;28;20520;-28
2023/10/23 18:39:39;;;;;;;9.60;4.63;;;;;;;19.20;58.97;95893.19;10343175;28;20389;-27
2023/10/23 18:44:42;;;;;;;14.27;5.10;;;;;;;19.24;59.11;95921.03;10329251;28;20041;-28
2023/10/23 18:49:44;;;;;;;13.35;4.90;;;;;;;19.25;59.00;95937.09;10336586;28;20041;-28
2023/10/23 18:54:44;;;;;;;10.43;4.40;;;;;;;19.28;59.24;95937.03;10328029;28;20049;-28
2023/10/23 18:59:47;;;;;;;12.67;5.47;;;;;;;19.28;59.32;95947.19;10330978;28;20542;-27
2023/10/23 19:04:47;;;;;;;9.73;5.05;;;;;;;19.17;60.02;95943.97;10329253;28;20038;-28
2023/10/23 19:09:48;;;;;;;17.77;6.40;;;;;;;19.27;60.18;95937.91;10327344;28;20544;-27
2023/10/23 19:14:50;;;;;;;12.43;4.68;;;;;;;19.31;60.25;95932.75;10332420;28;20525;-28
2023/10/23 19:19:51;;;;;;;10.85;4.82;;;;;;;19.29;60.14;95931.97;10339982;28;20042;-28
2023/10/23 19:24:51;;;;;;;7.77;4.10;;;;;;;19.33;60.09;95935.28;10341319;28;20042;-28
2023/10/23 19:29:53;;;;;;;7.10;3.93;;;;;;;19.30;60.12;95930.22;10345833;28;20289;-27
2023/10/23 19:34:53;;;;;;;6.78;3.92;;;;;;;19.29;60.17;95964.09;10337888;28;20493;-27
2023/10/23 19:39:54;;;;;;;10.10;3.80;;;;;;;19.31;59.93;95969.97;10337608;28;20038;-29
2023/10/23 19:44:54;;;;;;;14.23;4.03;;;;;;;19.33;60.10;95991.94;10351674;28;20026;-28
2023/10/23 19:49:57;;;;;;;7.53;3.40;;;;;;;19.32;59.93;95977.56;10339813;28;20037;-27
2023/10/23 19:54:58;;;;;;;9.85;3.72;;;;;;;19.32;59.98;95948.81;10324469;28;20092;-28
2023/10/23 20:00:00;;;;;;;8.50;3.97;;;;;;;19.32;59.90;95915.81;10323645;28;20497;-28
2023/10/23 20:05:02;;;;;;;9.85;3.95;;;;;;;19.31;59.51;95920.06;10330954;28;20048;-27
2023/10/23 20:10:03;;;;;;;6.25;3.58;;;;;;;19.30;60.33;95910.78;10340066;28;20036;-28
2023/10/23 20:15:04;;;;;;;8.18;3.45;;;;;;;19.29;60.05;95865.13;10328025;28;20506;-28
2023/10/23 20:20:06;;;;;;;9.18;3.75;;;;;;;19.29;59.74;95848.22;10344499;28;20038;-28
2023/10/23 20:25:07;;;;;;;6.97;3.15;;;;;;;19.29;59.84;95887.97;10340577;28;20500;-28
2023/10/23 20:30:08;;;;;;;6.07;3.47;;;;;;;19.28;60.14;95869.38;10330423;28;20034;-28
2023/10/23 20:35:08;;;;;;;7.03;3.15;;;;;;;19.23;59.63;95833.06;10343375;28;20036;-27
2023/10/23 20:40:09;;;;;;;7.10;3.75;;;;;;;19.24;60.21;95851.69;10353002;28;20041;-28
2023/10/23 20:45:11;;;;;;;9.35;3.75;;;;;;;19.27;60.47;95849.09;10346845;28;20037;-28
2023/10/23 20:50:12;;;;;;;14.88;4.10;;;;;;;19.24;60.51;95839.00;10350398;28;20038;-28
2023/10/23 20:55:13;;;;;;;9.07;5.00;;;;;;;19.22;60.92;95848.31;10342157;28;20041;-29
2023/10/23 21:00:14;;;;;;;8.40;3.20;;;;;;;19.17;60.74;95853.44;10333955;28;20058;-28
2023/10/23 21:05:15;;;;;;;5.38;3.00;;;;;;;19.17;61.08;95853.44;10333114;28;20058;-28
2023/10/23 21:10:15;;;;;;;11.10;3.13;;;;;;;19.14;61.19;95847.56;10335710;28;20029;-27
2023/10/23 21:15:15;;;;;;;5.97;2.87;;;;;;;19.13;61.18;95846.75;10335733;28;20049;-28
2023/10/23 21:20:16;;;;;;;7.10;3.10;;;;;;;19.12;61.39;95840.00;10331558;28;20820;-28
2023/10/23 21:25:16;;;;;;;6.07;3.38;;;;;;;19.12;61.11;95834.94;10341923;28;20408;-28
2023/10/23 21:30:17;;;;;;;8.95;2.92;;;;;;;19.10;61.58;95835.81;10337495;28;20113;-28
2023/10/23 21:35:17;;;;;;;8.37;3.33;;;;;;;18.97;61.45;95808.97;10346446;28;20147;-27
2023/10/23 21:40:17;;;;;;;6.10;3.13;;;;;;;19.10;61.34;95818.06;10340561;28;20504;-29
2023/10/23 21:45:18;;;;;;;7.83;3.60;;;;;;;19.07;61.32;95820.63;10334588;28;20058;-28
2023/10/23 21:50:18;;;;;;;7.18;3.45;;;;;;;19.07;61.41;95825.69;10337819;28;20035;-29
2023/10/23 21:55:22;;;;;;;6.17;2.93;;;;;;;19.08;61.48;95822.31;10333100;28;20493;-28
2023/10/23 22:00:29;;;;;;;6.90;2.80;;;;;;;19.06;61.26;95813.88;10346728;28;20448;-29
2023/10/23 22:05:30;;;;;;;7.55;3.13;;;;;;;19.07;61.37;95815.53;10344703;28;20113;-28
2023/10/23 22:10:30;;;;;;;12.50;4.28;;;;;;;19.05;61.42;95827.44;10341617;28;20038;-28
2023/10/23 22:15:31;;;;;;;6.93;3.45;;;;;;;19.03;61.41;95824.09;10331421;28;20030;-28
2023/10/23 22:20:31;;;;;;;9.20;4.60;;;;;;;19.03;61.59;95834.22;10341873;28;20489;-27
2023/10/23 22:25:31;;;;;;;9.53;2.97;;;;;;;19.02;61.30;95840.16;10344147;28;20030;-28
2023/10/23 22:30:32;;;;;;;5.40;2.93;;;;;;;19.02;61.38;95858.75;10336939;28;20037;-28
2023/10/23 22:35:33;;;;;;;4.43;2.80;;;;;;;19.05;61.34;95852.78;10337294;28;20409;-27
2023/10/23 22:40:33;;;;;;;8.38;3.45;;;;;;;19.02;61.36;95832.56;10333868;28;20301;-29
2023/10/23 22:45:33;;;;;;;7.27;2.73;;;;;;;19.01;61.66;95835.97;10336189;28;20382;-28
2023/10/23 22:50:34;;;;;;;5.27;2.93;;;;;;;18.98;61.33;95841.06;10336043;28;20042;-27
2023/10/23 22:55:34;;;;;;;4.88;2.80;;;;;;;18.99;61.23;95827.56;10336895;28;20030;-29
2023/10/23 23:00:35;;;;;;;5.78;2.60;;;;;;;19.00;61.44;95852.06;10330725;28;20479;-29
2023/10/23 23:05:39;;;;;;;5.80;3.35;;;;;;;19.03;61.29;95852.00;10343594;28;20041;-28
2023/10/23 23:10:40;;;;;;;6.85;2.70;;;;;;;19.03;61.20;95845.22;10338727;28;20116;-28
2023/10/23 23:15:44;;;;;;;5.30;2.67;;;;;;;19.04;61.17;95833.38;10329428;28;20034;-28